Time;durP1;ratioP1;P1;durP2;ratioP2;P2;SDS_P1;SDS_P2;PMS_P1;PMS_P2;Temp;Humidity;BMP_temperature;BMP_pressure;BME280_temperature;BME280_humidity;BME280_pressure;Samples;Min_cycle;Max_cycle;Signal;HPM_P1;HPM_P2
2023/05/09 00:01:39;;;;;;;28.10;18.30;;;;;;;2.33;70.92;101089.22;218301;1257;140938;-65
2023/05/09 00:06:42;;;;;;;26.20;17.30;;;;;;;2.26;71.31;101084.05;218143;1257;140274;-66
2023/05/09 00:11:45;;;;;;;38.70;19.10;;;;;;;2.22;71.09;101087.15;219102;1257;140954;-66
2023/05/09 00:16:49;;;;;;;31.80;19.50;;;;;;;2.12;71.10;101088.23;218455;1259;140935;-65
2023/05/09 00:21:54;;;;;;;29.40;18.70;;;;;;;2.02;71.22;101089.37;220711;1257;140052;-65
2023/05/09 00:26:57;;;;;;;29.60;18.10;;;;;;;1.93;71.78;101086.76;220508;1256;140127;-66
2023/05/09 00:32:00;;;;;;;28.90;20.30;;;;;;;1.85;71.61;101084.88;219015;1257;139843;-64
2023/05/09 00:37:04;;;;;;;30.50;19.60;;;;;;;1.84;72.02;101083.09;220538;1256;140952;-64
2023/05/09 00:42:08;;;;;;;30.40;19.30;;;;;;;1.84;71.86;101077.50;219414;1257;140052;-63
2023/05/09 00:47:10;;;;;;;37.40;20.20;;;;;;;1.81;71.89;101075.45;219939;1257;139720;-64
2023/05/09 00:52:13;;;;;;;28.00;20.60;;;;;;;1.79;72.16;101073.27;219018;1259;140605;-65
2023/05/09 00:57:16;;;;;;;27.50;18.20;;;;;;;1.75;72.07;101072.37;218284;1257;140220;-63
2023/05/09 01:02:20;;;;;;;28.90;20.70;;;;;;;1.69;72.18;101070.27;218670;1257;141489;-63
2023/05/09 01:07:40;;;;;;;32.00;20.60;;;;;;;1.58;72.22;101068.69;219330;1256;139915;-64
2023/05/09 01:12:50;;;;;;;32.90;20.80;;;;;;;1.54;72.85;101065.23;217845;1257;142568;-62
2023/05/09 01:18:20;;;;;;;29.60;20.20;;;;;;;1.54;72.76;101060.48;219122;1258;139487;-62
2023/05/09 01:23:45;;;;;;;36.00;21.70;;;;;;;1.51;72.87;101055.73;217885;1256;139476;-63
2023/05/09 01:29:10;;;;;;;44.90;22.00;;;;;;;1.46;73.32;101053.23;218855;1257;139706;-62
2023/05/09 01:34:17;;;;;;;28.70;19.00;;;;;;;1.39;73.20;101056.31;217995;1257;139192;-64
2023/05/09 01:39:24;;;;;;;31.90;20.30;;;;;;;1.38;73.68;101058.53;218125;1257;139834;-62
2023/05/09 01:44:34;;;;;;;27.70;17.50;;;;;;;1.36;73.56;101056.24;217853;1256;139777;-62
2023/05/09 01:49:40;;;;;;;29.20;18.20;;;;;;;1.25;73.40;101057.79;218252;1257;140151;-63
2023/05/09 01:54:46;;;;;;;26.60;17.40;;;;;;;1.23;73.81;101048.86;217722;1258;139678;-63
2023/05/09 01:59:51;;;;;;;27.40;14.80;;;;;;;1.21;73.77;101045.89;218515;1257;140162;-62
2023/05/09 02:04:56;;;;;;;31.20;16.20;;;;;;;1.13;73.86;101042.69;218204;1256;139989;-62
2023/05/09 02:10:02;;;;;;;25.70;14.90;;;;;;;1.11;73.96;101037.23;219086;1256;140704;-64
2023/05/09 02:15:07;;;;;;;20.20;15.80;;;;;;;1.08;73.99;101032.29;219494;1256;139950;-64
2023/05/09 02:20:12;;;;;;;23.30;15.70;;;;;;;1.05;74.15;101034.98;218980;1256;140411;-63
2023/05/09 02:25:18;;;;;;;;;;;;;;;1.01;74.19;101036.05;220578;1256;151886;-64
2023/05/09 02:30:25;;;;;;;20.80;14.50;;;;;;;0.97;74.22;101037.46;220619;1255;521865;-64
2023/05/09 02:35:28;;;;;;;22.00;13.00;;;;;;;0.98;74.12;101038.16;220268;1256;141243;-63
2023/05/09 02:40:33;;;;;;;23.30;13.90;;;;;;;0.97;74.01;101033.02;219144;1256;139905;-65
2023/05/09 02:45:36;;;;;;;23.90;14.60;;;;;;;0.96;74.44;101031.77;219452;1256;140575;-65
2023/05/09 02:50:42;;;;;;;19.90;14.00;;;;;;;0.98;74.80;101033.66;218194;1259;141805;-65
2023/05/09 02:55:46;;;;;;;16.60;12.70;;;;;;;0.89;74.43;101034.52;219961;1257;141751;-66
2023/05/09 03:00:50;;;;;;;24.70;16.50;;;;;;;0.81;74.69;101036.13;217989;1256;141017;-65
2023/05/09 03:05:53;;;;;;;26.80;18.00;;;;;;;0.83;75.13;101035.58;217928;1257;139964;-64
2023/05/09 03:10:57;;;;;;;24.60;18.40;;;;;;;0.89;75.19;101032.45;218382;1259;139794;-65
2023/05/09 03:15:59;;;;;;;31.50;21.80;;;;;;;0.89;75.32;101027.89;218045;1257;139702;-65
2023/05/09 03:21:02;;;;;;;30.10;16.40;;;;;;;0.93;75.51;101030.83;218266;1256;139760;-64
2023/05/09 03:26:05;;;;;;;25.60;17.50;;;;;;;0.97;75.11;101031.87;218212;1256;140235;-63
2023/05/09 03:31:09;;;;;;;22.90;16.70;;;;;;;1.08;75.18;101036.30;218087;1256;141083;-64
2023/05/09 03:36:13;;;;;;;25.00;17.20;;;;;;;1.11;74.99;101032.64;217938;1259;139858;-64
2023/05/09 03:41:17;;;;;;;21.40;17.50;;;;;;;1.32;75.03;101032.59;218256;1256;139989;-64
2023/05/09 03:46:20;;;;;;;25.60;18.60;;;;;;;1.49;74.72;101034.39;218746;1256;141009;-64
2023/05/09 03:51:24;;;;;;;23.30;17.60;;;;;;;1.75;75.12;101038.69;217802;1257;139574;-64
2023/05/09 03:56:27;;;;;;;19.90;14.10;;;;;;;2.00;74.59;101038.73;217899;1257;140679;-63
2023/05/09 04:01:30;;;;;;;26.70;16.10;;;;;;;2.08;74.52;101041.81;217921;1257;139537;-62
2023/05/09 04:06:34;;;;;;;25.80;16.30;;;;;;;2.43;74.71;101046.25;218248;1256;141221;-62
2023/05/09 04:11:38;;;;;;;23.40;17.90;;;;;;;3.33;74.63;101041.64;218688;1256;140796;-66
2023/05/09 04:16:41;;;;;;;20.10;15.80;;;;;;;5.39;72.83;101037.42;219890;1256;140552;-67
2023/05/09 04:21:43;;;;;;;22.30;15.60;;;;;;;7.03;70.73;101034.95;219161;1256;141562;-67
2023/05/09 04:26:47;;;;;;;22.30;15.70;;;;;;;7.56;69.87;101035.64;219000;1256;139853;-67
2023/05/09 04:31:49;;;;;;;19.80;14.30;;;;;;;8.11;68.12;101037.11;220638;1255;140077;-67
2023/05/09 04:36:53;;;;;;;26.20;15.80;;;;;;;8.86;67.08;101034.20;219886;1256;140525;-66
2023/05/09 04:41:56;;;;;;;19.20;12.50;;;;;;;8.73;66.72;101036.35;218752;1256;140076;-65
2023/05/09 04:46:58;;;;;;;18.80;13.70;;;;;;;8.56;66.60;101034.48;218083;1257;140773;-64
2023/05/09 04:52:00;;;;;;;28.50;14.30;;;;;;;8.13;66.57;101034.77;218478;1256;139709;-66
2023/05/09 04:57:05;;;;;;;19.60;13.20;;;;;;;7.85;67.40;101035.08;218518;1256;141348;-66
2023/05/09 05:02:20;;;;;;;22.60;15.50;;;;;;;7.59;67.51;101041.19;217845;1257;139920;-65
2023/05/09 05:07:22;;;;;;;16.10;14.50;;;;;;;7.44;68.06;101042.60;218347;1257;139609;-66
2023/05/09 05:12:25;;;;;;;19.10;12.40;;;;;;;7.43;68.76;101041.60;217694;1259;140802;-67
2023/05/09 05:17:28;;;;;;;14.60;10.70;;;;;;;9.92;66.75;101032.40;218235;1256;139748;-68
2023/05/09 05:22:32;;;;;;;15.00;12.50;;;;;;;13.51;64.16;101021.67;218062;1257;140197;-69
2023/05/09 05:27:35;;;;;;;15.70;11.50;;;;;;;16.44;61.09;101019.02;217903;1256;139897;-70
2023/05/09 05:32:39;;;;;;;11.90;8.50;;;;;;;20.19;56.68;101014.45;217773;1256;139137;-67
2023/05/09 05:37:43;;;;;;;11.60;7.50;;;;;;;22.43;52.91;101014.22;217865;1257;139160;-69
2023/05/09 05:42:46;;;;;;;8.30;5.90;;;;;;;24.53;48.53;101017.38;218941;1256;140909;-68
2023/05/09 05:47:48;;;;;;;4.90;4.20;;;;;;;24.83;45.64;101019.84;217941;1257;139818;-66
2023/05/09 05:52:52;;;;;;;5.10;4.60;;;;;;;23.51;44.27;101012.08;218647;1257;140558;-66
2023/05/09 05:57:56;;;;;;;2.80;2.60;;;;;;;24.83;42.21;101014.77;217784;1259;138815;-66
2023/05/09 06:02:59;;;;;;;6.10;3.10;;;;;;;23.65;40.17;101008.35;219393;1256;139223;-70
2023/05/09 06:08:02;;;;;;;3.40;3.00;;;;;;;21.46;41.00;101011.23;220440;1255;139126;-67
2023/05/09 06:13:06;;;;;;;4.20;3.80;;;;;;;19.80;41.41;101009.55;218217;1255;152542;-72
2023/05/09 06:18:09;;;;;;;4.20;3.80;;;;;;;18.92;41.99;101002.02;220191;1256;140677;-64
2023/05/09 06:23:12;;;;;;;3.90;3.50;;;;;;;18.11;42.81;101002.40;220713;1256;139209;-65
2023/05/09 06:28:15;;;;;;;3.70;3.10;;;;;;;17.51;42.93;100997.84;218438;1256;139100;-67
2023/05/09 06:33:18;;;;;;;4.10;2.90;;;;;;;16.49;43.05;101006.21;217898;1257;139641;-64
2023/05/09 06:38:20;;;;;;;3.30;3.00;;;;;;;15.68;43.42;100998.36;218845;1256;139632;-66
2023/05/09 06:43:23;;;;;;;4.40;2.80;;;;;;;15.35;43.69;100992.05;217806;1259;139255;-64
2023/05/09 06:48:25;;;;;;;3.20;2.90;;;;;;;15.61;43.28;100990.89;218649;1256;139561;-65
2023/05/09 06:53:29;;;;;;;6.00;3.20;;;;;;;16.54;43.05;100984.44;219063;1256;140561;-65
2023/05/09 06:58:31;;;;;;;3.50;3.00;;;;;;;17.68;42.30;100981.76;219002;1256;139181;-65
2023/05/09 07:03:35;;;;;;;5.00;2.70;;;;;;;19.25;41.13;100978.60;218097;1257;139238;-64
2023/05/09 07:08:38;;;;;;;4.90;2.90;;;;;;;20.48;39.81;100978.73;218803;1256;139192;-64
2023/05/09 07:13:42;;;;;;;10.50;2.60;;;;;;;20.92;39.42;100973.69;218605;1256;139259;-66
2023/05/09 07:18:46;;;;;;;2.40;2.10;;;;;;;21.45;38.97;100971.52;217886;1255;139164;-67
2023/05/09 07:23:49;;;;;;;2.20;2.10;;;;;;;21.13;36.42;100967.19;218498;1256;139937;-67
2023/05/09 07:28:54;;;;;;;2.20;2.00;;;;;;;20.50;35.34;100971.99;217769;1256;138970;-67
2023/05/09 07:33:57;;;;;;;5.50;2.50;;;;;;;19.69;35.84;100971.34;217809;1257;138833;-67
2023/05/09 07:39:00;;;;;;;2.00;1.90;;;;;;;19.63;36.59;100964.45;218120;1259;138832;-66
2023/05/09 07:44:04;;;;;;;1.60;1.40;;;;;;;19.32;36.14;100960.43;219534;1256;139207;-67
2023/05/09 07:49:08;;;;;;;6.60;2.40;;;;;;;19.24;36.39;100948.45;217978;1257;139522;-67
2023/05/09 07:54:12;;;;;;;1.80;1.60;;;;;;;19.46;36.43;100939.65;219027;1255;140595;-67
2023/05/09 07:59:16;;;;;;;2.30;2.10;;;;;;;19.12;35.32;100940.20;219942;1256;140078;-66
2023/05/09 08:04:18;;;;;;;5.70;2.50;;;;;;;18.89;36.10;100934.63;219855;1255;140072;-68
2023/05/09 08:09:23;;;;;;;1.80;1.60;;;;;;;19.06;35.92;100931.16;219646;1256;139238;-72
2023/05/09 08:14:25;;;;;;;2.30;1.70;;;;;;;18.76;35.85;100924.16;218544;1259;139226;-68
2023/05/09 08:19:28;;;;;;;1.90;1.80;;;;;;;18.42;35.89;100928.36;218497;1256;139627;-68
2023/05/09 08:24:31;;;;;;;1.80;1.70;;;;;;;18.40;35.96;100919.59;218990;1257;139796;-68
2023/05/09 08:29:34;;;;;;;2.40;2.20;;;;;;;18.57;36.35;100909.55;217935;1255;139626;-68
2023/05/09 08:34:36;;;;;;;3.30;2.20;;;;;;;18.35;35.23;100906.16;218830;1256;140635;-64
2023/05/09 08:39:38;;;;;;;2.20;2.00;;;;;;;18.00;36.17;100899.88;217749;1257;138958;-67
2023/05/09 08:44:41;;;;;;;3.50;3.10;;;;;;;18.04;35.67;100897.25;219540;1256;139862;-70
2023/05/09 08:49:44;;;;;;;2.40;1.90;;;;;;;17.75;35.81;100897.95;218007;1259;139119;-68
2023/05/09 08:54:50;;;;;;;2.50;2.30;;;;;;;17.73;36.40;100886.02;218421;1256;139081;-65
2023/05/09 08:59:54;;;;;;;2.00;1.80;;;;;;;17.92;36.69;100884.46;218200;1259;140545;-65
2023/05/09 09:05:01;;;;;;;4.60;2.90;;;;;;;18.18;36.44;100880.83;217968;1256;140219;-67
2023/05/09 09:10:07;;;;;;;6.60;4.90;;;;;;;18.48;35.93;100877.81;217981;1256;139226;-67
2023/05/09 09:15:16;;;;;;;9.80;2.70;;;;;;;18.65;35.39;100876.88;217798;1257;139387;-66
2023/05/09 09:20:21;;;;;;;4.70;1.90;;;;;;;18.66;34.93;100878.44;218472;1257;139218;-67
2023/05/09 09:25:25;;;;;;;6.50;3.00;;;;;;;18.51;34.66;100880.05;218653;1256;139039;-68
2023/05/09 09:30:28;;;;;;;2.60;1.60;;;;;;;18.36;34.82;100881.39;218988;1256;139099;-68
2023/05/09 09:35:38;;;;;;;3.10;2.20;;;;;;;18.50;34.94;100865.95;217825;1257;140579;-66
2023/05/09 09:40:48;;;;;;;5.50;2.60;;;;;;;18.70;34.99;100865.30;219941;1255;140117;-67
2023/05/09 09:45:56;;;;;;;3.20;2.70;;;;;;;18.92;35.32;100866.45;217771;1255;139035;-66
2023/05/09 09:51:10;;;;;;;11.60;2.80;;;;;;;19.14;35.52;100863.52;218525;1257;140405;-68
2023/05/09 09:56:13;;;;;;;2.70;2.40;;;;;;;19.27;34.65;100859.52;220295;1256;139851;-69
2023/05/09 10:01:16;;;;;;;1.90;1.80;;;;;;;19.20;34.44;100853.17;218905;1257;140024;-67
2023/05/09 10:06:19;;;;;;;5.40;2.50;;;;;;;19.01;34.32;100855.15;220394;1256;139483;-68
2023/05/09 10:11:22;;;;;;;5.60;2.50;;;;;;;18.81;34.11;100838.34;219505;1256;140425;-68
2023/05/09 10:16:25;;;;;;;2.80;2.30;;;;;;;18.93;34.29;100842.08;220318;1256;247884;-67
2023/05/09 10:22:01;;;;;;;2.30;1.60;;;;;;;18.58;33.83;100836.84;219102;1255;141768;-68
2023/05/09 10:27:10;;;;;;;3.20;2.90;;;;;;;18.47;33.76;100825.80;220179;1255;139607;-68
2023/05/09 10:32:39;;;;;;;9.00;2.70;;;;;;;18.56;33.62;100821.77;219052;1255;138830;-67
2023/05/09 10:37:44;;;;;;;3.30;2.60;;;;;;;18.64;33.70;100815.08;218362;1259;139099;-67
2023/05/09 10:42:48;;;;;;;3.90;2.60;;;;;;;18.44;33.57;100807.70;218770;1257;139565;-67
2023/05/09 10:47:55;;;;;;;6.00;2.50;;;;;;;18.35;34.19;100804.02;218106;1259;139392;-66
2023/05/09 10:53:12;;;;;;;4.80;2.60;;;;;;;18.37;34.11;100795.77;217955;1257;138938;-67
2023/05/09 10:58:18;;;;;;;2.00;1.90;;;;;;;18.55;34.30;100783.86;217987;1257;141018;-67
2023/05/09 11:03:23;;;;;;;4.20;2.70;;;;;;;18.56;34.21;100774.73;217919;1257;139096;-67
2023/05/09 11:08:32;;;;;;;3.40;3.10;;;;;;;18.72;34.09;100770.45;218012;1257;224431;-66
2023/05/09 11:13:37;;;;;;;1.70;1.60;;;;;;;18.76;34.26;100764.36;218825;1259;139473;-67
2023/05/09 11:18:51;;;;;;;2.50;2.30;;;;;;;18.91;34.31;100757.79;218059;1256;140797;-67
2023/05/09 11:23:55;;;;;;;5.10;2.40;;;;;;;18.85;33.61;100752.23;218612;1259;140296;-67
2023/05/09 11:28:59;;;;;;;4.10;2.60;;;;;;;18.76;33.51;100747.29;218729;1259;139651;-67
2023/05/09 11:34:05;;;;;;;2.80;2.10;;;;;;;18.80;33.57;100730.83;218510;1257;139408;-67
2023/05/09 11:39:10;;;;;;;2.20;2.00;;;;;;;18.94;33.21;100729.91;218324;1259;139828;-68
2023/05/09 11:44:20;;;;;;;4.60;2.10;;;;;;;18.85;32.57;100719.50;219956;1257;139029;-66
2023/05/09 11:49:24;;;;;;;3.10;2.50;;;;;;;18.69;32.72;100715.02;218507;1256;139102;-67
2023/05/09 11:54:28;;;;;;;2.30;2.10;;;;;;;18.46;32.63;100707.44;219422;1256;139716;-67
2023/05/09 11:59:35;;;;;;;2.20;1.20;;;;;;;18.47;33.02;100696.16;218387;1257;139063;-67
2023/05/09 12:04:38;;;;;;;2.90;2.10;;;;;;;18.31;32.49;100688.69;220035;1256;139268;-67
2023/05/09 12:09:42;;;;;;;3.40;2.40;;;;;;;18.15;33.11;100681.31;218092;1257;138531;-68
2023/05/09 12:14:45;;;;;;;2.60;2.40;;;;;;;18.30;33.18;100674.66;218845;1256;140074;-67
2023/05/09 12:30:53;;;;;;;2.40;2.10;;;;;;;18.27;33.52;100656.28;215937;1295;682606;-68
2023/05/09 12:36:04;;;;;;;4.90;2.60;;;;;;;18.37;32.99;100649.36;216754;1270;138753;-71
2023/05/09 12:41:10;;;;;;;4.90;2.10;;;;;;;18.50;32.82;100644.55;215981;1269;1528248;-67
2023/05/09 12:46:18;;;;;;;1.90;1.80;;;;;;;18.63;32.63;100633.70;218806;1257;139078;-67
2023/05/09 12:51:22;;;;;;;2.70;2.20;;;;;;;18.26;32.62;100627.73;217650;1256;138411;-67
2023/05/09 12:56:25;;;;;;;4.50;2.10;;;;;;;18.31;33.41;100621.16;218773;1256;138599;-68
2023/05/09 13:01:31;;;;;;;3.80;2.40;;;;;;;18.44;33.42;100618.45;218030;1257;139601;-67
2023/05/09 13:06:34;;;;;;;2.10;2.00;;;;;;;18.41;32.80;100608.23;218448;1256;138771;-67
2023/05/09 13:11:38;;;;;;;2.90;2.30;;;;;;;18.28;33.02;100605.55;218190;1256;139768;-68
2023/05/09 13:16:42;;;;;;;5.70;2.30;;;;;;;18.12;32.55;100603.27;218396;1256;138456;-66
2023/05/09 13:21:46;;;;;;;3.00;2.80;;;;;;;18.06;32.93;100587.98;218410;1256;139341;-67
2023/05/09 13:26:51;;;;;;;5.40;2.50;;;;;;;18.25;32.37;100582.66;218325;1256;139555;-66
2023/05/09 13:31:57;;;;;;;6.30;2.50;;;;;;;18.41;32.96;100575.89;218063;1255;139587;-68
2023/05/09 13:37:00;;;;;;;2.40;2.30;;;;;;;18.55;33.04;100569.02;218425;1256;138759;-67
2023/05/09 13:42:05;;;;;;;4.10;2.90;;;;;;;18.58;33.32;100554.19;218258;1257;139819;-68
2023/05/09 13:47:10;;;;;;;4.20;2.30;;;;;;;18.52;33.13;100557.56;218160;1256;229964;-67
2023/05/09 13:52:14;;;;;;;2.60;2.40;;;;;;;18.26;33.08;100557.49;218636;1259;138707;-69
2023/05/09 13:57:20;;;;;;;2.50;2.30;;;;;;;18.11;33.19;100545.79;218213;1257;138591;-68
2023/05/09 14:02:24;;;;;;;2.50;2.30;;;;;;;18.12;33.59;100545.89;218800;1256;141081;-68
2023/05/09 14:07:28;;;;;;;3.60;2.50;;;;;;;17.99;33.97;100528.48;218139;1257;138814;-69
2023/05/09 14:12:33;;;;;;;3.00;2.20;;;;;;;18.14;33.71;100525.02;218172;1256;139112;-68
2023/05/09 14:17:38;;;;;;;3.40;2.60;;;;;;;18.15;33.56;100520.27;218241;1256;139591;-71
2023/05/09 14:22:42;;;;;;;2.20;1.70;;;;;;;18.20;33.38;100515.11;218354;1256;139077;-69
2023/05/09 14:27:47;;;;;;;3.50;2.40;;;;;;;18.26;33.28;100510.17;218329;1256;139366;-70
2023/05/09 14:32:51;;;;;;;3.60;1.90;;;;;;;18.21;33.16;100501.46;218110;1256;138649;-68
2023/05/09 14:37:56;;;;;;;2.10;1.90;;;;;;;18.12;33.20;100500.57;219268;1256;138567;-68
2023/05/09 14:43:01;;;;;;;5.40;2.70;;;;;;;18.01;32.90;100499.40;219443;1256;139387;-68
2023/05/09 14:48:04;;;;;;;5.80;1.90;;;;;;;17.87;33.26;100494.66;219955;1255;139030;-68
2023/05/09 14:53:07;;;;;;;4.50;2.40;;;;;;;17.99;33.46;100487.16;219698;1256;138587;-70
2023/05/09 14:58:12;;;;;;;3.50;2.00;;;;;;;18.12;33.31;100475.54;218227;1256;138953;-69
2023/05/09 15:03:16;;;;;;;3.00;2.30;;;;;;;18.13;33.33;100471.76;219105;1256;139767;-68
2023/05/09 15:08:21;;;;;;;2.70;1.90;;;;;;;18.06;33.16;100463.86;217959;1259;138375;-69
2023/05/09 15:13:24;;;;;;;4.20;2.60;;;;;;;17.82;33.43;100461.42;219446;1256;139357;-69
2023/05/09 15:18:27;;;;;;;3.50;1.90;;;;;;;17.65;33.60;100456.83;218696;1255;138473;-69
2023/05/09 15:23:30;;;;;;;2.50;2.40;;;;;;;17.58;33.27;100441.67;218214;1259;138974;-68
2023/05/09 15:28:34;;;;;;;2.00;1.80;;;;;;;17.65;33.48;100437.31;218339;1256;139751;-69
2023/05/09 15:33:37;;;;;;;1.50;1.40;;;;;;;17.57;33.46;100433.95;218232;1259;139939;-69
2023/05/09 15:38:47;;;;;;;2.00;1.90;;;;;;;17.42;33.62;100424.95;218453;1259;138800;-69
2023/05/09 15:43:51;;;;;;;4.10;2.20;;;;;;;17.15;33.67;100419.06;218573;1257;138922;-69
2023/05/09 15:48:57;;;;;;;3.60;1.90;;;;;;;17.12;33.66;100419.48;218488;1258;139327;-70
2023/05/09 15:54:00;;;;;;;5.70;2.60;;;;;;;17.08;33.57;100415.69;218005;1257;139200;-69
2023/05/09 15:59:02;;;;;;;2.30;1.60;;;;;;;16.98;33.63;100411.52;218884;1256;141241;-68
2023/05/09 16:04:04;;;;;;;2.40;1.80;;;;;;;16.93;33.54;100402.98;217942;1257;138936;-69
2023/05/09 16:09:08;;;;;;;2.90;2.70;;;;;;;16.79;33.82;100390.51;218112;1257;138781;-68
2023/05/09 16:14:11;;;;;;;3.60;2.30;;;;;;;16.64;34.29;100383.67;218554;1255;139512;-69
2023/05/09 16:19:15;;;;;;;2.40;2.00;;;;;;;16.64;34.31;100380.11;218019;1256;139223;-68
2023/05/09 16:24:17;;;;;;;2.00;1.90;;;;;;;16.61;34.04;100374.64;217963;1259;140208;-69
2023/05/09 16:29:21;;;;;;;3.80;2.40;;;;;;;16.56;34.37;100366.78;218058;1257;139152;-69
2023/05/09 16:34:23;;;;;;;4.00;1.80;;;;;;;16.43;34.45;100368.64;219179;1256;139087;-70
2023/05/09 16:39:26;;;;;;;8.10;2.60;;;;;;;16.30;34.21;100363.69;218537;1256;139211;-68
2023/05/09 16:44:29;;;;;;;3.80;2.30;;;;;;;16.20;34.38;100356.35;220574;1255;139590;-70
2023/05/09 16:49:32;;;;;;;5.10;2.00;;;;;;;16.09;34.67;100353.46;218481;1256;138745;-70
2023/05/09 16:54:35;;;;;;;3.60;2.00;;;;;;;15.99;34.41;100351.48;218694;1256;139889;-69
2023/05/09 16:59:38;;;;;;;3.50;2.70;;;;;;;15.79;34.50;100345.81;218488;1257;139087;-70
2023/05/09 17:04:41;;;;;;;3.30;2.30;;;;;;;15.64;34.97;100344.05;217949;1257;140537;-68
2023/05/09 17:09:47;;;;;;;9.70;3.20;;;;;;;15.56;34.97;100338.73;219287;1258;139152;-69
2023/05/09 17:14:53;;;;;;;3.80;2.60;;;;;;;15.42;35.17;100342.02;218436;1256;138610;-69
2023/05/09 17:19:56;;;;;;;3.80;2.90;;;;;;;15.28;35.34;100338.20;218627;1256;138501;-68
2023/05/09 17:25:02;;;;;;;8.30;3.10;;;;;;;15.15;35.51;100334.23;218089;1256;139485;-68
2023/05/09 17:30:07;;;;;;;7.10;2.70;;;;;;;15.03;35.81;100330.43;217950;1257;138943;-68
2023/05/09 17:35:11;;;;;;;8.20;3.50;;;;;;;14.80;35.76;100326.83;218122;1256;139032;-68
2023/05/09 17:40:16;;;;;;;4.10;2.70;;;;;;;14.63;36.03;100331.70;217918;1257;139044;-70
2023/05/09 17:45:20;;;;;;;2.80;2.40;;;;;;;14.47;36.35;100331.09;218432;1257;140059;-68
2023/05/09 17:50:28;;;;;;;3.20;2.40;;;;;;;14.29;36.74;100331.34;217826;1260;138996;-68
2023/05/09 17:55:41;;;;;;;3.00;2.60;;;;;;;14.12;37.04;100336.91;218111;1256;138865;-68
2023/05/09 18:00:47;;;;;;;3.10;2.70;;;;;;;13.95;37.60;100336.52;217811;1257;139258;-68
2023/05/09 18:05:59;;;;;;;3.00;2.40;;;;;;;13.81;37.71;100336.75;219588;1256;138850;-69
2023/05/09 18:11:05;;;;;;;8.50;2.60;;;;;;;13.69;37.93;100335.05;218099;1257;138824;-68
2023/05/09 18:16:12;;;;;;;3.60;3.30;;;;;;;13.59;38.25;100330.36;218725;1257;139390;-68
2023/05/09 18:21:24;;;;;;;5.00;2.60;;;;;;;13.47;38.31;100325.27;217864;1256;141382;-68
2023/05/09 18:26:30;;;;;;;3.20;2.90;;;;;;;13.36;38.68;100329.44;219234;1256;139587;-69
2023/05/09 18:31:37;;;;;;;8.70;4.10;;;;;;;13.22;38.91;100332.73;218603;1257;138758;-68
2023/05/09 18:36:41;;;;;;;3.80;3.00;;;;;;;13.06;39.14;100338.50;218050;1257;139067;-67
2023/05/09 18:41:46;;;;;;;4.60;3.60;;;;;;;12.89;39.29;100340.33;219694;1256;139298;-68
2023/05/09 18:46:49;;;;;;;6.70;3.50;;;;;;;12.77;39.59;100341.85;218106;1256;139034;-68
2023/05/09 18:51:53;;;;;;;4.00;3.60;;;;;;;12.66;39.92;100347.22;218946;1257;139865;-70
2023/05/09 18:56:57;;;;;;;6.40;4.40;;;;;;;12.53;40.55;100342.69;218575;1259;139491;-68
2023/05/09 19:02:01;;;;;;;6.40;4.20;;;;;;;12.33;41.26;100348.58;217884;1257;138727;-68
2023/05/09 19:07:05;;;;;;;12.80;5.80;;;;;;;12.14;41.64;100348.28;218572;1256;140114;-68
2023/05/09 19:12:15;;;;;;;13.00;4.40;;;;;;;11.96;42.47;100346.33;217707;1259;139230;-68
2023/05/09 19:17:19;;;;;;;9.20;4.80;;;;;;;11.79;42.63;100340.54;218408;1257;139590;-68
2023/05/09 19:22:23;;;;;;;8.80;7.10;;;;;;;11.59;43.11;100340.23;217942;1257;139416;-68
2023/05/09 19:27:28;;;;;;;22.10;7.20;;;;;;;11.40;43.57;100339.16;218741;1257;139587;-68
2023/05/09 19:32:35;;;;;;;20.20;6.70;;;;;;;11.24;44.12;100336.10;217945;1257;138531;-68
2023/05/09 19:37:39;;;;;;;18.50;7.70;;;;;;;11.08;44.76;100335.08;218351;1256;138981;-69
2023/05/09 19:42:42;;;;;;;15.30;7.40;;;;;;;10.89;45.21;100337.18;218209;1257;139168;-67
2023/05/09 19:47:46;;;;;;;21.40;7.10;;;;;;;10.73;45.67;100329.61;217736;1257;139405;-68
2023/05/09 19:52:50;;;;;;;14.30;7.30;;;;;;;10.56;46.06;100327.65;218123;1260;139140;-67
2023/05/09 19:57:55;;;;;;;8.30;6.40;;;;;;;10.37;46.36;100329.25;218660;1256;139097;-68
2023/05/09 20:03:02;;;;;;;23.20;6.50;;;;;;;10.20;46.76;100328.48;218579;1256;139149;-68
2023/05/09 20:08:08;;;;;;;14.30;5.80;;;;;;;9.98;47.25;100329.95;217897;1256;205694;-70
2023/05/09 20:13:12;;;;;;;10.00;6.30;;;;;;;9.77;47.44;100331.38;219352;1257;140145;-70
2023/05/09 20:18:17;;;;;;;10.90;5.40;;;;;;;9.65;47.71;100328.89;219595;1259;141011;-65
2023/05/09 20:23:20;;;;;;;7.20;4.80;;;;;;;9.62;47.68;100323.67;220508;1257;139728;-67
2023/05/09 20:28:24;;;;;;;7.70;4.10;;;;;;;9.67;47.52;100324.68;220574;1256;139316;-66
2023/05/09 20:33:28;;;;;;;5.80;3.80;;;;;;;9.73;47.54;100322.84;218822;1257;139712;-69
2023/05/09 20:38:32;;;;;;;4.70;3.70;;;;;;;9.82;47.48;100317.52;220487;1257;139123;-67
2023/05/09 20:43:35;;;;;;;3.90;3.00;;;;;;;9.89;47.42;100317.48;218689;1257;139096;-67
2023/05/09 20:48:38;;;;;;;5.30;3.90;;;;;;;9.99;47.25;100314.99;218766;1257;138835;-68
2023/05/09 20:53:46;;;;;;;5.70;3.80;;;;;;;10.08;47.26;100314.77;218757;1256;138808;-68
2023/05/09 20:58:50;;;;;;;3.40;2.90;;;;;;;10.16;47.10;100319.36;218514;1257;139216;-69
2023/05/09 21:03:55;;;;;;;5.60;3.70;;;;;;;10.21;46.81;100318.28;217877;1257;139789;-69
2023/05/09 21:09:02;;;;;;;4.90;4.30;;;;;;;10.25;46.61;100319.44;218045;1257;139506;-69
2023/05/09 21:14:06;;;;;;;6.00;4.30;;;;;;;10.26;46.65;100315.70;217923;1257;139569;-69
2023/05/09 21:19:09;;;;;;;3.90;2.80;;;;;;;10.24;46.54;100310.46;218596;1256;140326;-66
2023/05/09 21:24:13;;;;;;;4.40;3.20;;;;;;;10.22;46.63;100309.09;217673;1260;139340;-66
2023/05/09 21:29:16;;;;;;;6.90;3.90;;;;;;;10.18;46.64;100309.18;218514;1259;140827;-69
2023/05/09 21:34:22;;;;;;;6.00;3.50;;;;;;;10.17;46.45;100304.39;217841;1257;138976;-67
2023/05/09 21:39:25;;;;;;;3.50;3.00;;;;;;;10.13;46.54;100303.06;218125;1260;139415;-67
2023/05/09 21:44:30;;;;;;;5.10;3.60;;;;;;;10.06;46.60;100302.35;218781;1256;139319;-69
2023/05/09 21:49:34;;;;;;;6.10;4.10;;;;;;;10.01;46.51;100298.84;217987;1260;139488;-69
2023/05/09 21:54:41;;;;;;;6.90;3.40;;;;;;;10.00;46.47;100298.11;217637;1257;139803;-69
2023/05/09 21:59:45;;;;;;;6.70;3.40;;;;;;;9.99;46.54;100297.21;219653;1256;140311;-67
2023/05/09 22:04:50;;;;;;;7.90;4.30;;;;;;;9.96;46.59;100293.80;217765;1257;139284;-68
2023/05/09 22:09:54;;;;;;;3.30;2.90;;;;;;;9.91;46.59;100296.89;219392;1257;140321;-67
2023/05/09 22:14:58;;;;;;;7.10;3.70;;;;;;;9.87;46.55;100293.60;218926;1256;138812;-66
2023/05/09 22:20:02;;;;;;;4.80;3.70;;;;;;;9.82;46.54;100294.09;218691;1257;139040;-66
2023/05/09 22:25:06;;;;;;;6.70;3.70;;;;;;;9.76;46.56;100289.19;217645;1257;139732;-65
2023/05/09 22:30:13;;;;;;;6.90;3.60;;;;;;;9.69;46.73;100288.21;220480;1257;139513;-67
2023/05/09 22:35:16;;;;;;;5.50;3.40;;;;;;;9.64;46.79;100284.27;219304;1256;138976;-70
2023/05/09 22:40:21;;;;;;;11.50;5.00;;;;;;;9.60;46.90;100280.41;218124;1257;140370;-68
2023/05/09 22:45:24;;;;;;;3.90;2.90;;;;;;;9.52;46.91;100278.65;218676;1257;139115;-68
2023/05/09 22:50:28;;;;;;;5.00;3.30;;;;;;;9.45;47.05;100274.38;218240;1257;138918;-68
2023/05/09 22:55:31;;;;;;;4.40;3.00;;;;;;;9.37;47.29;100272.45;218622;1260;139849;-68
2023/05/09 23:00:37;;;;;;;4.20;3.50;;;;;;;9.28;47.30;100270.77;218361;1256;140028;-68
2023/05/09 23:05:42;;;;;;;5.90;3.40;;;;;;;9.22;47.41;100266.21;217700;1257;139271;-66
2023/05/09 23:10:46;;;;;;;4.00;2.80;;;;;;;9.13;47.52;100259.29;217644;1257;138886;-67